Time;durP1;ratioP1;P1;durP2;ratioP2;P2;SDS_P1;SDS_P2;PMS_P1;PMS_P2;Temp;Humidity;BMP_temperature;BMP_pressure;BME280_temperature;BME280_humidity;BME280_pressure;Samples;Min_cycle;Max_cycle;Signal;HPM_P1;HPM_P2
2023/05/12 00:01:50;;;;;;;21.70;10.20;;;;;;;;;;4249129;27;20514;-82
2023/05/12 00:03:52;;;;;;;17.10;9.40;;;;;;;;;;4231525;28;20043;-82
2023/05/12 00:05:53;;;;;;;20.90;9.27;;;;;;;;;;4248376;27;20154;-82
2023/05/12 00:07:55;;;;;;;16.80;9.20;;;;;;;;;;4248693;27;20058;-82
2023/05/12 00:09:56;;;;;;;16.45;9.00;;;;;;;;;;4248306;27;20047;-82
2023/05/12 00:11:57;;;;;;;22.05;8.77;;;;;;;;;;4230539;28;20070;-82
2023/05/12 00:13:58;;;;;;;19.33;8.75;;;;;;;;;;4247509;27;20078;-82
2023/05/12 00:15:59;;;;;;;16.50;8.13;;;;;;;;;;4249150;27;20058;-82
2023/05/12 00:18:00;;;;;;;17.98;8.27;;;;;;;;;;4248856;28;20039;-82
2023/05/12 00:20:02;;;;;;;14.90;7.75;;;;;;;;;;4249230;28;20068;-82
2023/05/12 00:22:03;;;;;;;23.80;8.43;;;;;;;;;;4249336;27;20039;-82
2023/05/12 00:24:05;;;;;;;14.45;7.63;;;;;;;;;;4248196;28;20047;-82
2023/05/12 00:26:06;;;;;;;17.98;7.43;;;;;;;;;;4248804;28;20035;-82
2023/05/12 00:28:07;;;;;;;18.63;8.48;;;;;;;;;;4248250;28;20046;-82
2023/05/12 00:30:09;;;;;;;20.65;8.15;;;;;;;;;;4247841;28;20490;-82
2023/05/12 00:32:10;;;;;;;16.55;8.15;;;;;;;;;;4247962;28;20043;-82
2023/05/12 00:34:11;;;;;;;18.55;8.35;;;;;;;;;;4247388;28;20047;-82
2023/05/12 00:36:12;;;;;;;22.70;9.25;;;;;;;;;;4247619;28;20402;-82
2023/05/12 00:38:13;;;;;;;17.80;7.82;;;;;;;;;;4248200;28;20082;-82
2023/05/12 00:40:15;;;;;;;16.30;8.63;;;;;;;;;;4248477;28;20061;-82
2023/05/12 00:42:16;;;;;;;16.60;8.15;;;;;;;;;;4247614;28;20047;-82
2023/05/12 00:44:17;;;;;;;18.45;8.30;;;;;;;;;;4229025;28;20071;-82
2023/05/12 00:46:20;;;;;;;17.17;8.70;;;;;;;;;;4248199;28;20040;-83
2023/05/12 00:48:21;;;;;;;16.05;8.80;;;;;;;;;;4246320;28;20130;-82
2023/05/12 00:50:22;;;;;;;18.05;9.63;;;;;;;;;;4232400;28;20067;-82
2023/05/12 00:52:23;;;;;;;21.25;9.60;;;;;;;;;;4234214;28;20035;-81
2023/05/12 00:54:26;;;;;;;19.40;9.40;;;;;;;;;;4234486;28;20047;-81
2023/05/12 00:56:27;;;;;;;24.05;10.85;;;;;;;;;;4234333;28;20449;-81
2023/05/12 00:58:28;;;;;;;19.13;8.98;;;;;;;;;;4235276;28;20122;-82
2023/05/12 01:00:29;;;;;;;18.80;10.15;;;;;;;;;;4234391;28;20075;-82
2023/05/12 01:02:30;;;;;;;24.75;10.02;;;;;;;;;;4234299;28;20082;-82
2023/05/12 01:04:32;;;;;;;21.38;9.35;;;;;;;;;;4234393;28;20115;-82
2023/05/12 01:06:53;;;;;;;20.63;9.55;;;;;;;;;;4233991;28;20054;-82
2023/05/12 01:08:55;;;;;;;22.25;9.35;;;;;;;;;;4249756;27;20122;-82
2023/05/12 01:10:56;;;;;;;21.13;8.75;;;;;;;;;;4252245;27;20510;-82
2023/05/12 01:12:58;;;;;;;24.00;8.50;;;;;;;;;;4251443;27;20850;-82
2023/05/12 01:14:59;;;;;;;18.95;9.40;;;;;;;;;;4251974;27;20043;-82
2023/05/12 01:17:02;;;;;;;17.88;8.30;;;;;;;;;;4250766;27;20054;-82
2023/05/12 01:19:06;;;;;;;23.77;9.00;;;;;;;;;;4233556;28;20113;-82
2023/05/12 01:21:07;;;;;;;18.48;8.75;;;;;;;;;;4251112;27;20043;-82
2023/05/12 01:23:09;;;;;;;20.00;8.60;;;;;;;;;;4250979;27;20130;-82
2023/05/12 01:25:11;;;;;;;21.58;8.65;;;;;;;;;;4250542;27;20126;-82
2023/05/12 01:27:13;;;;;;;20.13;8.50;;;;;;;;;;4232990;28;20039;-82
2023/05/12 01:29:14;;;;;;;16.67;7.88;;;;;;;;;;4233435;28;20476;-82
2023/05/12 01:31:15;;;;;;;23.98;9.93;;;;;;;;;;4251347;27;20099;-82
2023/05/12 01:33:17;;;;;;;17.70;8.50;;;;;;;;;;4251424;27;20043;-82
2023/05/12 01:35:20;;;;;;;24.65;10.30;;;;;;;;;;4251426;27;20035;-83
2023/05/12 01:37:23;;;;;;;20.08;9.63;;;;;;;;;;4250667;27;20043;-82
2023/05/12 01:39:25;;;;;;;22.15;9.18;;;;;;;;;;4251638;27;20047;-82
2023/05/12 01:41:26;;;;;;;27.83;11.35;;;;;;;;;;4250661;27;20041;-82
2023/05/12 01:43:27;;;;;;;22.60;11.20;;;;;;;;;;4237492;27;20498;-81
2023/05/12 01:45:28;;;;;;;20.88;10.60;;;;;;;;;;4215375;28;20044;-82
2023/05/12 01:47:29;;;;;;;19.65;9.48;;;;;;;;;;4233725;28;20039;-82
2023/05/12 01:49:30;;;;;;;21.00;10.77;;;;;;;;;;4233781;28;20040;-82
2023/05/12 01:51:31;;;;;;;26.15;11.02;;;;;;;;;;4234010;28;20500;-82
2023/05/12 01:53:32;;;;;;;20.48;10.52;;;;;;;;;;4235032;28;20461;-82
2023/05/12 01:55:33;;;;;;;26.40;10.95;;;;;;;;;;4233993;28;20044;-82
2023/05/12 01:57:35;;;;;;;25.27;10.77;;;;;;;;;;4233862;28;20490;-82
2023/05/12 01:59:36;;;;;;;28.30;11.80;;;;;;;;;;4242762;27;20118;-82
2023/05/12 02:01:37;;;;;;;21.13;10.25;;;;;;;;;;4250591;27;20043;-82
2023/05/12 02:03:40;;;;;;;25.33;11.32;;;;;;;;;;4250644;27;20495;-83
2023/05/12 02:05:41;;;;;;;24.42;10.38;;;;;;;;;;4249981;27;20051;-82
2023/05/12 02:07:42;;;;;;;22.63;10.02;;;;;;;;;;4250796;27;20039;-82
2023/05/12 02:09:43;;;;;;;25.50;10.82;;;;;;;;;;4231306;28;20047;-82
2023/05/12 02:11:45;;;;;;;24.38;10.52;;;;;;;;;;4250645;27;20588;-82
2023/05/12 02:13:46;;;;;;;24.08;10.75;;;;;;;;;;4250028;27;20471;-81
2023/05/12 02:15:47;;;;;;;26.58;11.02;;;;;;;;;;4249772;27;20073;-81
2023/05/12 02:17:53;;;;;;;26.05;12.88;;;;;;;;;;4249857;27;20534;-83
2023/05/12 02:19:54;;;;;;;27.75;11.43;;;;;;;;;;4249843;27;20079;-81
2023/05/12 02:21:55;;;;;;;32.03;10.93;;;;;;;;;;4250334;27;20154;-81
2023/05/12 02:23:56;;;;;;;22.75;10.25;;;;;;;;;;4249371;27;20581;-82
2023/05/12 02:25:57;;;;;;;26.63;11.10;;;;;;;;;;4250461;27;20050;-81
2023/05/12 02:27:59;;;;;;;28.23;11.68;;;;;;;;;;4214438;28;20138;-81
2023/05/12 02:30:00;;;;;;;24.48;10.27;;;;;;;;;;4250432;27;20482;-81
2023/05/12 02:32:02;;;;;;;29.83;10.35;;;;;;;;;;4214872;28;20126;-81
2023/05/12 02:34:03;;;;;;;24.95;10.13;;;;;;;;;;4248648;27;20153;-82
2023/05/12 02:36:04;;;;;;;25.02;10.43;;;;;;;;;;4237063;27;20047;-81
2023/05/12 02:38:05;;;;;;;26.70;10.50;;;;;;;;;;4232722;28;20051;-82
2023/05/12 02:40:07;;;;;;;29.00;10.13;;;;;;;;;;4233270;28;20510;-82
2023/05/12 02:42:08;;;;;;;23.60;9.32;;;;;;;;;;4214493;28;20507;-82
2023/05/12 02:44:09;;;;;;;21.17;10.48;;;;;;;;;;4246947;27;20051;-82
2023/05/12 02:46:10;;;;;;;25.05;10.40;;;;;;;;;;4232066;28;20664;-82
2023/05/12 02:48:11;;;;;;;28.25;11.98;;;;;;;;;;4231204;28;20062;-82
2023/05/12 02:50:12;;;;;;;22.92;9.60;;;;;;;;;;4250710;27;20110;-82
2023/05/12 02:52:13;;;;;;;23.20;9.40;;;;;;;;;;4248876;27;20483;-82
2023/05/12 02:54:15;;;;;;;21.77;10.30;;;;;;;;;;4250413;27;20035;-82
2023/05/12 02:56:17;;;;;;;23.65;9.30;;;;;;;;;;4231046;28;20130;-82
2023/05/12 02:58:18;;;;;;;21.77;10.50;;;;;;;;;;4250397;27;20043;-82
2023/05/12 03:00:20;;;;;;;23.00;9.60;;;;;;;;;;4248526;27;20435;-82
2023/05/12 03:02:22;;;;;;;21.83;9.70;;;;;;;;;;4231383;28;20047;-82
2023/05/12 03:04:23;;;;;;;21.98;9.60;;;;;;;;;;4232046;28;20399;-82
2023/05/12 03:06:25;;;;;;;20.45;9.68;;;;;;;;;;4249014;27;20402;-82
2023/05/12 03:08:26;;;;;;;19.83;9.13;;;;;;;;;;4249852;27;20835;-82
2023/05/12 03:10:27;;;;;;;23.88;9.85;;;;;;;;;;4248982;27;20047;-82
2023/05/12 03:12:29;;;;;;;22.80;10.02;;;;;;;;;;4249676;27;20078;-82
2023/05/12 03:14:30;;;;;;;22.88;9.88;;;;;;;;;;4248526;27;20051;-83
2023/05/12 03:16:31;;;;;;;21.65;9.30;;;;;;;;;;4249355;27;20047;-82
2023/05/12 03:18:33;;;;;;;21.45;9.38;;;;;;;;;;4249726;27;20047;-82
2023/05/12 03:20:35;;;;;;;16.08;8.07;;;16.70;99.90;;;;;;4248750;27;20399;-82
2023/05/12 03:22:36;;;;;;;22.45;10.05;;;12.10;99.90;;;;;;4230833;28;20055;-82
2023/05/12 03:24:36;;;;;;;22.30;9.48;;;11.90;99.90;;;;;;4230742;28;20091;-82
2023/05/12 03:26:38;;;;;;;21.05;9.60;;;11.90;99.90;;;;;;4223180;28;20044;-82
2023/05/12 03:28:39;;;;;;;22.88;10.52;;;11.90;99.90;;;;;;4215402;28;20051;-82
2023/05/12 03:30:40;;;;;;;24.42;11.18;;;11.90;99.90;;;;;;4214012;28;20105;-82
2023/05/12 03:32:41;;;;;;;21.70;8.70;;;12.00;99.90;;;;;;4215238;28;20472;-82
2023/05/12 03:34:41;;;;;;;21.75;9.15;;;11.90;99.90;;;;;;4214527;28;20050;-82
2023/05/12 03:36:42;;;;;;;26.00;11.10;;;11.90;99.90;;;;;;4215333;28;20078;-82
2023/05/12 03:38:43;;;;;;;21.38;9.73;;;11.90;99.90;;;;;;4215085;28;20396;-82
2023/05/12 03:40:44;;;;;;;26.40;10.95;;;11.90;99.90;;;;;;4215885;28;20101;-82
2023/05/12 03:42:44;;;;;;;24.45;9.85;;;11.90;99.90;;;;;;4220804;28;20042;-82
2023/05/12 03:44:45;;;;;;;21.83;10.52;;;11.90;99.90;;;;;;4231753;28;20118;-82
2023/05/12 03:46:46;;;;;;;18.52;9.20;;;11.80;99.90;;;;;;4232270;28;20471;-82
2023/05/12 03:48:46;;;;;;;24.00;10.05;;;11.80;99.90;;;;;;4231075;28;20086;-82
2023/05/12 03:50:47;;;;;;;26.23;10.80;;;11.90;99.90;;;;;;4232211;28;20065;-82
2023/05/12 03:52:49;;;;;;;21.67;9.00;;;11.80;99.90;;;;;;4231170;28;20036;-82
2023/05/12 03:54:50;;;;;;;22.60;9.25;;;11.90;99.90;;;;;;4231616;28;20507;-82
2023/05/12 03:56:52;;;;;;;23.98;9.95;;;11.90;99.90;;;;;;4231269;28;20044;-82
2023/05/12 03:58:53;;;;;;;21.45;9.18;;;11.90;99.90;;;;;;4232119;28;20075;-82
2023/05/12 04:00:56;;;;;;;22.00;9.02;;;11.90;99.90;;;;;;4230972;28;20047;-82
2023/05/12 04:02:56;;;;;;;19.13;10.05;;;11.90;99.90;;;;;;4231003;28;20118;-82
2023/05/12 04:04:57;;;;;;;21.63;8.55;;;11.90;99.90;;;;;;4230454;28;20795;-82
2023/05/12 04:06:59;;;;;;;23.95;9.55;;;11.90;99.90;;;;;;4231580;28;20097;-82
2023/05/12 04:08:59;;;;;;;26.20;10.07;;;11.90;99.90;;;;;;4232271;28;20047;-82
2023/05/12 04:11:01;;;;;;;25.42;10.43;;;11.90;99.90;;;;;;4231143;28;20036;-82
2023/05/12 04:13:01;;;;;;;24.55;8.85;;;11.90;99.90;;;;;;4231737;28;20050;-83
2023/05/12 04:15:02;;;;;;;23.50;9.52;;;11.90;99.90;;;;;;4231469;28;20044;-83
2023/05/12 04:17:04;;;;;;;22.48;9.68;;;11.80;99.90;;;;;;4230137;28;20479;-82
2023/05/12 04:19:04;;;;;;;24.52;9.38;;;11.90;99.90;;;;;;4229004;28;20130;-83
2023/05/12 04:21:05;;;;;;;23.70;10.10;;;11.90;99.90;;;;;;4215109;28;20448;-82
2023/05/12 04:23:06;;;;;;;19.65;9.25;;;11.90;99.90;;;;;;4218426;28;20056;-81
2023/05/12 04:25:07;;;;;;;22.52;10.48;;;11.90;99.90;;;;;;4232111;28;20122;-82
2023/05/12 04:27:08;;;;;;;19.98;9.70;;;11.90;99.90;;;;;;4236712;28;20032;-82
2023/05/12 04:29:09;;;;;;;21.48;9.10;;;12.00;99.90;;;;;;4235058;28;20100;-82
2023/05/12 04:31:09;;;;;;;26.48;10.38;;;12.00;99.90;;;;;;4235709;28;20089;-82
2023/05/12 04:33:10;;;;;;;25.60;10.13;;;12.00;99.90;;;;;;4235234;28;20040;-82
2023/05/12 04:35:11;;;;;;;24.27;10.00;;;12.00;99.90;;;;;;4235299;28;20495;-83
2023/05/12 04:37:12;;;;;;;27.02;10.00;;;12.00;99.90;;;;;;4225579;28;20066;-82
2023/05/12 04:39:13;;;;;;;21.73;9.85;;;12.00;99.90;;;;;;4251601;27;20548;-82
2023/05/12 04:41:16;;;;;;;26.08;9.35;;;12.10;99.90;;;;;;4252490;27;20043;-83
2023/05/12 04:43:17;;;;;;;23.65;9.50;;;12.10;99.90;;;;;;4245883;27;20115;-83
2023/05/12 04:45:18;;;;;;;25.33;10.32;;;12.10;99.90;;;;;;4235322;28;20043;-82
2023/05/12 04:47:18;;;;;;;27.55;10.02;;;12.10;99.90;;;;;;4235010;28;20052;-82
2023/05/12 04:49:19;;;;;;;26.08;10.75;;;12.20;99.90;;;;;;4236518;27;20035;-82
2023/05/12 04:51:20;;;;;;;20.00;9.75;;;12.20;99.90;;;;;;4240130;27;20118;-83
2023/05/12 04:53:20;;;;;;;25.85;10.35;;;12.30;99.90;;;;;;4249815;27;20490;-82
2023/05/12 04:55:22;;;;;;;28.40;10.63;;;12.30;99.90;;;;;;4255021;27;20050;-82
2023/05/12 04:57:23;;;;;;;23.27;9.63;;;12.30;99.90;;;;;;4251864;27;20043;-82
2023/05/12 04:59:24;;;;;;;21.95;10.05;;;12.30;99.90;;;;;;4252127;27;20075;-82
2023/05/12 05:01:24;;;;;;;26.05;10.95;;;12.30;99.90;;;;;;4250456;27;20483;-82
2023/05/12 05:03:25;;;;;;;27.98;12.63;;;12.30;99.90;;;;;;4251957;27;20090;-81
2023/05/12 05:05:26;;;;;;;33.22;12.68;;;12.40;99.90;;;;;;4252064;27;20050;-82
2023/05/12 05:07:26;;;;;;;27.40;11.80;;;12.40;99.90;;;;;;4251148;27;20122;-81
2023/05/12 05:09:28;;;;;;;31.55;12.93;;;12.30;99.90;;;;;;4252398;27;20040;-82
2023/05/12 05:11:29;;;;;;;22.58;10.85;;;12.40;99.90;;;;;;4251908;27;20554;-82
2023/05/12 05:13:30;;;;;;;29.38;11.63;;;12.40;99.90;;;;;;4233970;28;20051;-81
2023/05/12 05:15:30;;;;;;;23.38;10.82;;;12.40;99.90;;;;;;4251188;27;20066;-81
2023/05/12 05:17:31;;;;;;;29.77;13.23;;;12.40;99.90;;;;;;4251546;27;20043;-81
2023/05/12 05:19:32;;;;;;;25.50;12.07;;;12.50;99.90;;;;;;4243889;27;20031;-82
2023/05/12 05:21:33;;;;;;;27.73;11.48;;;12.50;99.90;;;;;;4234532;28;20540;-81
2023/05/12 05:23:34;;;;;;;24.83;11.98;;;12.50;99.90;;;;;;4234876;28;20091;-82
2023/05/12 05:25:36;;;;;;;24.23;12.38;;;12.50;99.90;;;;;;4216029;28;20361;-81
2023/05/12 05:27:37;;;;;;;32.05;12.35;;;12.50;99.90;;;;;;4234564;28;20093;-82
2023/05/12 05:29:38;;;;;;;27.30;11.65;;;12.60;99.90;;;;;;4233968;28;20086;-82
2023/05/12 05:31:39;;;;;;;27.73;12.07;;;12.60;99.90;;;;;;4235008;28;20483;-82
2023/05/12 05:33:39;;;;;;;30.95;11.48;;;12.60;99.90;;;;;;4234610;28;20039;-81
2023/05/12 05:35:41;;;;;;;27.25;11.90;;;12.60;99.90;;;;;;4233953;28;20044;-82
2023/05/12 05:37:42;;;;;;;26.77;11.93;;;;;;;;;;4250601;27;20086;-82
2023/05/12 05:39:43;;;;;;;26.88;11.52;;;;;;;;;;4251048;27;20035;-82
2023/05/12 05:41:44;;;;;;;25.70;11.68;;;;;;;;;;4251660;27;20399;-82
2023/05/12 05:43:45;;;;;;;28.13;12.77;;;;;;;;;;4251088;27;20039;-82
2023/05/12 05:45:48;;;;;;;28.80;12.50;;;;;;;;;;4251016;27;20471;-82
2023/05/12 05:47:51;;;;;;;28.48;11.77;;;;;;;;;;4251241;27;20527;-86
2023/05/12 05:49:52;;;;;;;28.75;12.38;;;;;;;;;;4242188;27;20039;-87
2023/05/12 05:51:55;;;;;;;27.70;11.30;;;;;;;;;;4251983;27;20431;-86
2023/05/12 05:53:57;;;;;;;26.75;11.77;;;;;;;;;;4248491;27;20039;-86
2023/05/12 05:55:59;;;;;;;29.70;12.52;;;;;;;;;;4252598;27;20070;-86
2023/05/12 05:58:01;;;;;;;25.83;12.02;;;;;;;;;;4252885;27;20130;-87
2023/05/12 06:00:03;;;;;;;26.50;11.52;;;;;;;;;;4254362;27;20039;-87
2023/05/12 06:02:05;;;;;;;33.00;12.70;;;;;;;;;;4244421;27;20054;-87
2023/05/12 06:04:07;;;;;;;26.40;13.18;;;;;;;;;;4246041;27;20155;-88
2023/05/12 06:06:08;;;;;;;31.27;14.02;;;;;;;;;;4255305;27;20031;-87
2023/05/12 06:08:12;;;;;;;31.85;13.98;;;;;;;;;;4254696;27;20487;-87
2023/05/12 06:10:13;;;;;;;37.20;15.32;;;;;;;;;;4243720;27;20052;-87
2023/05/12 06:12:15;;;;;;;39.05;15.98;;;;;;;;;;4248161;27;20463;-88
2023/05/12 06:14:16;;;;;;;36.45;14.40;;;;;;;;;;4242611;27;20072;-87
2023/05/12 06:16:18;;;;;;;32.08;14.23;;;;;;;;;;4248784;27;20043;-87
2023/05/12 06:18:22;;;;;;;39.45;16.75;;;;;;;;;;4252887;27;20039;-87
2023/05/12 06:20:23;;;;;;;35.67;14.38;;;;;;;;;;4252227;27;20046;-86
2023/05/12 06:22:25;;;;;;;33.35;16.15;;;;;;;;;;4239691;27;20461;-86
2023/05/12 06:24:27;;;;;;;32.58;15.43;;;;;;;;;;4230239;28;20049;-87
2023/05/12 06:26:28;;;;;;;40.55;16.35;;;;;;;;;;4234059;28;20066;-86
2023/05/12 06:28:29;;;;;;;36.85;15.18;;;;;;;;;;4250696;27;20042;-87
2023/05/12 06:30:30;;;;;;;29.85;15.82;;;;;;;;;;4248329;27;20144;-87
2023/05/12 06:32:31;;;;;;;38.53;17.83;;;;;;;;;;4234289;28;20058;-86
2023/05/12 06:34:34;;;;;;;49.95;17.15;;;;;;;;;;4248792;27;20039;-87
2023/05/12 06:36:35;;;;;;;31.75;17.23;;;;;;;;;;4247951;27;20074;-86
2023/05/12 06:38:36;;;;;;;39.78;16.85;;;;;;;;;;4235750;28;20410;-86
2023/05/12 06:40:37;;;;;;;38.08;17.58;;;;;;;;;;4234553;28;20040;-87
2023/05/12 06:42:39;;;;;;;40.13;17.88;;;;;;;;;;4236194;27;20100;-87
2023/05/12 06:44:41;;;;;;;42.65;19.58;;;;;;;;;;4250859;27;20074;-86
2023/05/12 06:46:42;;;;;;;36.30;17.50;;;;;;;;;;4235185;27;20100;-86
2023/05/12 06:48:44;;;;;;;39.35;18.67;;;;;;;;;;4248877;27;20406;-87
2023/05/12 06:50:45;;;;;;;41.20;20.15;;;;;;;;;;4250564;27;20042;-87
2023/05/12 06:52:47;;;;;;;43.35;20.50;;;;;;;;;;4250470;27;20054;-87
2023/05/12 06:54:48;;;;;;;44.47;19.20;;;;;;;;;;4242584;27;20478;-87
2023/05/12 06:56:49;;;;;;;47.30;20.65;;;;;;;;;;4216280;28;20543;-86
2023/05/12 06:58:51;;;;;;;47.15;22.77;;;12.70;99.90;;;;;;4250141;27;20399;-87
2023/05/12 07:00:51;;;;;;;44.25;21.67;;;14.50;99.90;;;;;;4215632;28;20105;-87
2023/05/12 07:02:52;;;;;;;45.30;23.02;;;14.50;99.90;;;;;;4250344;27;20078;-87
2023/05/12 07:04:53;;;;;;;44.95;21.55;;;14.60;99.90;;;;;;4219471;28;20047;-87
2023/05/12 07:06:55;;;;;;;49.08;22.83;;;14.60;99.90;;;;;;4251501;27;20046;-88
2023/05/12 07:08:56;;;;;;;51.75;23.75;;;14.70;99.90;;;;;;4232281;28;20080;-87
2023/05/12 07:11:01;;;;;;;50.60;24.33;;;;;;;;;;4251811;27;20042;-87
2023/05/12 07:13:03;;;;;;;54.50;24.33;;;;;;;;;;4248678;27;20429;-87
2023/05/12 07:15:04;;;;;;;48.70;23.45;;;;;;;;;;4250867;27;20072;-87
2023/05/12 07:17:06;;;;;;;49.75;23.65;;;;;;;;;;4236213;27;20050;-87
2023/05/12 07:19:08;;;;;;;44.53;23.88;;;;;;;;;;4248921;27;20043;-87
2023/05/12 07:21:09;;;;;;;48.15;24.08;;;;;;;;;;4217564;28;20458;-87
2023/05/12 07:23:10;;;;;;;48.20;25.50;;;;;;;;;;4242640;27;20062;-88
2023/05/12 07:25:12;;;;;;;49.45;24.35;;;;;;;;;;4248362;27;20395;-87
2023/05/12 07:27:13;;;;;;;46.80;24.58;;;14.70;99.90;;;;;;4236565;27;20040;-87
2023/05/12 07:29:14;;;;;;;47.65;25.38;;;15.40;99.90;;;;;;4250990;27;20049;-87
2023/05/12 07:31:15;;;;;;;45.10;24.58;;;;;;;;;;4230213;28;20507;-87
2023/05/12 07:33:16;;;;;;;46.30;23.63;;;;;;;;;;4247912;27;20087;-88
2023/05/12 07:35:17;;;;;;;45.65;23.95;;;;;;;;;;4250671;27;20050;-85
2023/05/12 07:37:18;;;;;;;48.72;23.85;;;;;;;;;;4249002;27;20441;-87
2023/05/12 07:39:22;;;;;;;45.88;23.70;;;15.40;99.90;;;;;;4222014;28;20047;-87
2023/05/12 07:41:23;;;;;;;43.70;23.77;;;15.70;99.90;;;;;;4232599;28;20054;-85
2023/05/12 07:43:24;;;;;;;45.05;24.67;;;15.80;99.90;;;;;;4230992;28;20040;-86
2023/05/12 07:45:24;;;;;;;44.67;23.05;;;15.80;99.90;;;;;;4228378;28;20044;-87
2023/05/12 07:47:27;;;;;;;48.25;23.92;;;15.90;99.90;;;;;;4248646;27;20061;-86
2023/05/12 07:49:28;;;;;;;47.10;24.88;;;15.90;99.90;;;;;;4232552;28;20058;-87
2023/05/12 07:51:29;;;;;;;46.75;25.15;;;;;;;;;;4217892;28;20111;-86
2023/05/12 07:53:32;;;;;;;43.80;23.52;;;;;;;;;;4248629;27;20041;-87
2023/05/12 07:55:33;;;;;;;46.65;24.77;;;;;;;;;;4236121;27;20043;-87
2023/05/12 07:57:34;;;;;;;44.00;24.20;;;;;;;;;;4230658;28;20122;-84
2023/05/12 07:59:36;;;;;;;42.65;22.90;;;;;;;;;;4233801;27;20054;-85
2023/05/12 08:01:37;;;;;;;45.95;23.58;;;16.00;99.90;;;;;;4232597;28;20475;-84
2023/05/12 08:03:38;;;;;;;43.88;25.17;;;16.40;99.90;;;;;;4220273;28;20101;-85
2023/05/12 08:05:40;;;;;;;42.88;22.80;;;;;;;;;;4237499;28;20040;-85
2023/05/12 08:07:42;;;;;;;43.78;23.35;;;;;;;;;;4241099;28;20044;-85
2023/05/12 08:09:43;;;;;;;44.33;23.35;;;16.50;99.90;;;;;;4242209;28;20119;-85
2023/05/12 08:11:44;;;;;;;44.10;22.92;;;;;;;;;;4218249;28;20411;-86
2023/05/12 08:13:45;;;;;;;41.97;22.20;;;16.70;99.90;;;;;;4234797;27;20050;-86
2023/05/12 08:15:47;;;;;;;41.72;22.55;;;;;;;;;;4248542;27;20043;-86
2023/05/12 08:17:49;;;;;;;42.35;23.98;;;;;;;;;;4232703;28;20040;-85
2023/05/12 08:19:50;;;;;;;44.70;24.85;;;;;;;;;;4231924;28;20036;-85
2023/05/12 08:21:52;;;;;;;39.88;23.77;;;;;;;;;;4232131;28;20092;-86
2023/05/12 08:23:53;;;;;;;38.67;21.73;;;;;;;;;;4232622;28;20556;-85
2023/05/12 08:25:55;;;;;;;39.45;22.92;;;;;;;;;;4232192;28;20411;-86
2023/05/12 08:27:58;;;;;;;41.35;22.05;;;;;;;;;;4233290;28;20043;-86
2023/05/12 08:29:59;;;;;;;38.78;22.05;;;;;;;;;;4233884;28;20040;-85
2023/05/12 08:32:02;;;;;;;37.80;22.42;;;;;;;;;;4234035;28;20402;-85
2023/05/12 08:34:03;;;;;;;42.83;22.65;;;;;;;;;;4234668;28;20433;-85
2023/05/12 08:36:05;;;;;;;36.25;21.67;;;;;;;;;;4246292;28;20039;-84
2023/05/12 08:38:07;;;;;;;38.50;21.65;;;;;;;;;;4251885;28;20495;-85
2023/05/12 08:40:16;;;;;;;34.03;20.65;;;;;;;;;;4247391;28;20511;-85
2023/05/12 08:42:36;;;;;;;33.22;20.40;;;;;;;;;;4246441;28;20039;-84
2023/05/12 08:44:37;;;;;;;34.22;19.98;;;;;;;;;;4250732;28;20062;-85
2023/05/12 08:46:38;;;;;;;34.00;20.40;;;;;;;;;;4234197;28;20059;-85
2023/05/12 08:48:40;;;;;;;35.47;20.77;;;;;;;;;;4234048;28;20048;-86
2023/05/12 08:50:41;;;;;;;33.35;20.17;;;;;;;;;;4249959;28;20121;-85
2023/05/12 08:52:43;;;;;;;31.60;19.08;;;;;;;;;;4234979;28;20044;-85
2023/05/12 08:54:45;;;;;;;29.25;19.77;;;;;;;;;;4250584;28;20043;-84
2023/05/12 08:56:46;;;;;;;30.70;19.10;;;;;;;;;;4232976;28;20044;-85
2023/05/12 08:58:47;;;;;;;31.73;19.27;;;;;;;;;;4234486;28;20047;-85
2023/05/12 09:00:50;;;;;;;28.40;18.38;;;;;;;;;;4233984;28;20085;-84
2023/05/12 09:02:54;;;;;;;26.17;16.80;;;;;;;;;;4234039;28;20044;-84
2023/05/12 09:04:55;;;;;;;30.60;18.85;;;;;;;;;;4219718;28;20055;-84
2023/05/12 09:06:57;;;;;;;27.75;17.15;;;;;;;;;;4226598;28;20047;-84
2023/05/12 09:08:58;;;;;;;29.38;18.00;;;;;;;;;;4232384;28;20161;-84
2023/05/12 09:11:00;;;;;;;28.38;17.58;;;;;;;;;;4251390;27;20039;-84
2023/05/12 09:13:12;;;;;;;31.23;17.25;;;;;;;;;;4253938;27;20039;-84
2023/05/12 09:15:26;;;;;;;25.95;15.90;;;;;;;;;;4253349;27;20043;-84
2023/05/12 09:17:27;;;;;;;25.17;16.73;;;;;;;;;;4242444;27;20491;-85
2023/05/12 09:19:29;;;;;;;27.33;16.52;;;;;;;;;;4253815;27;20134;-84
2023/05/12 09:21:30;;;;;;;25.50;16.40;;;;;;;;;;4253852;27;20043;-84
2023/05/12 09:23:31;;;;;;;26.85;15.90;;;;;;;;;;4242805;27;20491;-84
2023/05/12 09:25:32;;;;;;;25.30;14.20;;;;;;;;;;4236782;28;20074;-84
2023/05/12 09:27:34;;;;;;;20.15;14.52;;;;;;;;;;4237186;28;20472;-84
2023/05/12 09:29:35;;;;;;;19.45;14.13;;;;;;;;;;4252093;27;20099;-84
2023/05/12 09:31:36;;;;;;;21.95;13.82;;;;;;;;;;4244291;27;20399;-84
2023/05/12 09:33:38;;;;;;;24.08;13.73;;;;;;;;;;4246586;27;20036;-84
2023/05/12 09:35:40;;;;;;;23.67;14.85;;;;;;;;;;4251414;27;20376;-84
2023/05/12 09:37:42;;;;;;;21.73;13.25;;;;;;;;;;4245725;27;20035;-84
2023/05/12 09:39:43;;;;;;;19.33;13.95;;;;;;;;;;4244065;27;20042;-84
2023/05/12 09:41:44;;;;;;;20.90;13.50;;;;;;;;;;4251011;27;20047;-84
2023/05/12 09:43:45;;;;;;;23.00;14.15;;;;;;;;;;4251433;27;20103;-84
2023/05/12 09:45:49;;;;;;;22.90;13.70;;;;;;;;;;4250430;27;20039;-84
2023/05/12 09:47:50;;;;;;;19.45;12.70;;;;;;;;;;4251315;27;20030;-83
2023/05/12 09:49:51;;;;;;;20.63;12.80;;;;;;;;;;4250238;27;20066;-83
2023/05/12 09:51:53;;;;;;;18.48;12.98;;;;;;;;;;4251278;27;20043;-84
2023/05/12 09:53:54;;;;;;;17.27;11.27;;;;;;;;;;4249804;27;20039;-84
2023/05/12 09:55:55;;;;;;;19.58;11.60;;;16.80;99.90;;;;;;4251013;27;20039;-85
2023/05/12 09:57:57;;;;;;;15.65;11.65;;;23.60;99.90;;;;;;4250882;27;20078;-85
2023/05/12 09:59:58;;;;;;;20.15;11.90;;;23.80;99.90;;;;;;4233391;28;20539;-84
2023/05/12 10:02:00;;;;;;;19.02;11.85;;;23.80;99.90;;;;;;4198226;28;20052;-84
2023/05/12 10:04:05;;;;;;;16.83;11.93;;;23.90;99.90;;;;;;4233530;28;20043;-84
2023/05/12 10:06:08;;;;;;;18.23;12.20;;;23.80;99.90;;;;;;4234528;28;20534;-84
2023/05/12 10:08:12;;;;;;;23.60;14.88;;;23.70;99.90;;;;;;4233769;28;20040;-84
2023/05/12 10:10:26;;;;;;;15.38;11.63;;;23.50;99.90;;;;;;4233343;28;20487;-84
2023/05/12 10:12:27;;;;;;;19.23;12.23;;;23.30;99.90;;;;;;4233971;28;20175;-84
2023/05/12 10:14:28;;;;;;;19.88;12.10;;;23.30;99.90;;;;;;4237498;27;20055;-84
2023/05/12 10:16:29;;;;;;;20.30;13.68;;;23.30;99.90;;;;;;4233426;28;20156;-83
2023/05/12 10:18:33;;;;;;;19.85;12.73;;;23.30;99.90;;;;;;4251804;27;20471;-85
2023/05/12 10:20:36;;;;;;;15.88;10.73;;;23.60;99.90;;;;;;4250204;27;20437;-84
2023/05/12 10:22:39;;;;;;;16.88;11.52;;;23.90;99.90;;;;;;4243853;27;20040;-85
2023/05/12 10:24:41;;;;;;;16.10;11.15;;;24.20;99.90;;;;;;4244051;27;20088;-84
2023/05/12 10:26:43;;;;;;;16.35;10.55;;;24.60;99.90;;;;;;4241328;27;20052;-84
2023/05/12 10:28:45;;;;;;;18.13;10.93;;;24.70;99.90;;;;;;4243699;27;20034;-84
2023/05/12 10:30:47;;;;;;;17.48;11.95;;;;;;;;;;4240700;27;20051;-84
2023/05/12 10:32:49;;;;;;;18.05;11.10;;;;;;;;;;4244687;27;20039;-84
2023/05/12 10:34:51;;;;;;;17.83;10.20;;;;;;;;;;4250440;27;20050;-84
2023/05/12 10:36:53;;;;;;;13.85;10.00;;;;;;;;;;4231916;28;20066;-84
2023/05/12 10:38:54;;;;;;;15.95;9.93;;;;;;;;;;4249706;27;20487;-83
2023/05/12 10:40:59;;;;;;;13.07;9.68;;;;;;;;;;4248694;27;20047;-83
2023/05/12 10:43:01;;;;;;;11.35;8.73;;;;;;;;;;4249623;27;20051;-85
2023/05/12 10:45:03;;;;;;;11.52;7.90;;;;;;;;;;4249538;27;20046;-83
2023/05/12 10:47:14;;;;;;;10.63;7.75;;;;;;;;;;4249943;27;20497;-84
2023/05/12 10:49:15;;;;;;;10.50;7.78;;;;;;;;;;4249526;27;20047;-84
2023/05/12 10:51:19;;;;;;;12.52;8.23;;;;;;;;;;4231534;28;20046;-84
2023/05/12 10:53:26;;;;;;;11.80;7.97;;;;;;;;;;4249533;27;20039;-84
2023/05/12 10:55:32;;;;;;;13.18;8.07;;;;;;;;;;4245105;27;20043;-84
2023/05/12 10:57:34;;;;;;;11.20;8.65;;;;;;;;;;4238767;27;20414;-84
2023/05/12 10:59:36;;;;;;;9.02;7.15;;;;;;;;;;4230370;28;20043;-84
2023/05/12 11:01:38;;;;;;;9.85;7.60;;;;;;;;;;4251053;27;20110;-84
2023/05/12 11:03:39;;;;;;;15.07;9.13;;;;;;;;;;4250697;27;20483;-83
2023/05/12 11:05:40;;;;;;;10.40;9.10;;;;;;;;;;4240443;27;20471;-82
2023/05/12 11:07:46;;;;;;;13.02;8.73;;;;;;;;;;4231713;28;20487;-82
2023/05/12 11:09:47;;;;;;;12.07;8.10;;;;;;;;;;4231795;28;20040;-83
2023/05/12 11:11:50;;;;;;;11.95;8.32;;;;;;;;;;4232295;28;20127;-83
2023/05/12 11:13:51;;;;;;;12.95;7.50;;;;;;;;;;4231599;28;20035;-83
2023/05/12 11:15:52;;;;;;;10.15;7.38;;;;;;;;;;4231825;28;20483;-83
2023/05/12 11:17:53;;;;;;;10.60;7.43;;;;;;;;;;4231452;28;20040;-82
2023/05/12 11:19:55;;;;;;;10.10;7.60;;;;;;;;;;4231295;28;20043;-83
2023/05/12 11:21:56;;;;;;;12.65;6.80;;;;;;;;;;4231611;28;20077;-83